sensor_id;sensor_type;location;lat;lon;timestamp;temperature;humidity
47540;DHT22;33280;52.152;21.052;2024-01-16T00:00:16;-1.50;99.90
47540;DHT22;33280;52.152;21.052;2024-01-16T00:03:03;-1.50;99.90
47540;DHT22;33280;52.152;21.052;2024-01-16T00:05:51;-1.50;99.90
47540;DHT22;33280;52.152;21.052;2024-01-16T00:08:39;-1.50;99.90
47540;DHT22;33280;52.152;21.052;2024-01-16T00:11:27;-1.40;99.90
47540;DHT22;33280;52.152;21.052;2024-01-16T00:14:14;-1.50;99.90
47540;DHT22;33280;52.152;21.052;2024-01-16T00:17:03;-1.50;99.90
47540;DHT22;33280;52.152;21.052;2024-01-16T00:19:51;-1.50;99.90
47540;DHT22;33280;52.152;21.052;2024-01-16T00:22:38;-1.50;99.90
47540;DHT22;33280;52.152;21.052;2024-01-16T00:25:26;-1.50;99.90
47540;DHT22;33280;52.152;21.052;2024-01-16T00:28:14;-1.50;99.90
47540;DHT22;33280;52.152;21.052;2024-01-16T00:31:01;-1.50;99.90
47540;DHT22;33280;52.152;21.052;2024-01-16T00:33:54;-1.50;99.90
47540;DHT22;33280;52.152;21.052;2024-01-16T00:36:42;-1.50;99.90
47540;DHT22;33280;52.152;21.052;2024-01-16T00:39:29;-1.50;99.90
47540;DHT22;33280;52.152;21.052;2024-01-16T00:42:17;-1.50;99.90
47540;DHT22;33280;52.152;21.052;2024-01-16T00:45:04;-1.50;99.90
47540;DHT22;33280;52.152;21.052;2024-01-16T00:47:52;-1.50;99.90
47540;DHT22;33280;52.152;21.052;2024-01-16T00:50:40;-1.50;99.90
47540;DHT22;33280;52.152;21.052;2024-01-16T00:53:27;-1.50;99.90
47540;DHT22;33280;52.152;21.052;2024-01-16T00:56:15;-1.50;99.90
47540;DHT22;33280;52.152;21.052;2024-01-16T00:59:02;-1.60;99.90
47540;DHT22;33280;52.152;21.052;2024-01-16T01:01:50;-1.60;99.90
47540;DHT22;33280;52.152;21.052;2024-01-16T01:04:37;-1.60;99.90
47540;DHT22;33280;52.152;21.052;2024-01-16T01:07:25;-1.60;99.90
47540;DHT22;33280;52.152;21.052;2024-01-16T01:10:14;-1.60;99.90
47540;DHT22;33280;52.152;21.052;2024-01-16T01:13:01;-1.60;99.90
47540;DHT22;33280;52.152;21.052;2024-01-16T01:15:49;-1.60;99.90
47540;DHT22;33280;52.152;21.052;2024-01-16T01:18:36;-1.70;99.90
47540;DHT22;33280;52.152;21.052;2024-01-16T01:21:24;-1.60;99.90
47540;DHT22;33280;52.152;21.052;2024-01-16T01:24:12;-1.70;99.90
47540;DHT22;33280;52.152;21.052;2024-01-16T01:27:00;-1.70;99.90
47540;DHT22;33280;52.152;21.052;2024-01-16T01:29:47;-1.60;99.90
47540;DHT22;33280;52.152;21.052;2024-01-16T01:32:34;-1.70;99.90
47540;DHT22;33280;52.152;21.052;2024-01-16T01:35:22;-1.70;99.90
47540;DHT22;33280;52.152;21.052;2024-01-16T01:38:10;-1.70;99.90
47540;DHT22;33280;52.152;21.052;2024-01-16T01:40:57;-1.70;99.90
47540;DHT22;33280;52.152;21.052;2024-01-16T01:43:45;-1.80;99.90
47540;DHT22;33280;52.152;21.052;2024-01-16T01:46:33;-1.70;99.90
47540;DHT22;33280;52.152;21.052;2024-01-16T01:49:22;-1.60;99.90
47540;DHT22;33280;52.152;21.052;2024-01-16T01:52:10;-1.70;99.90
47540;DHT22;33280;52.152;21.052;2024-01-16T01:54:58;-1.80;99.90
47540;DHT22;33280;52.152;21.052;2024-01-16T01:57:46;-1.80;99.90
47540;DHT22;33280;52.152;21.052;2024-01-16T02:00:33;-1.70;99.90
47540;DHT22;33280;52.152;21.052;2024-01-16T02:03:23;-1.80;99.90
47540;DHT22;33280;52.152;21.052;2024-01-16T02:06:14;-1.80;99.90
47540;DHT22;33280;52.152;21.052;2024-01-16T02:09:04;-1.90;99.90
47540;DHT22;33280;52.152;21.052;2024-01-16T02:11:54;-1.90;99.90
47540;DHT22;33280;52.152;21.052;2024-01-16T02:14:41;-1.90;99.90
47540;DHT22;33280;52.152;21.052;2024-01-16T02:17:29;-1.80;99.90
47540;DHT22;33280;52.152;21.052;2024-01-16T02:20:17;-1.90;99.90
47540;DHT22;33280;52.152;21.052;2024-01-16T02:23:04;-1.90;99.90
47540;DHT22;33280;52.152;21.052;2024-01-16T02:25:54;-1.90;99.90
47540;DHT22;33280;52.152;21.052;2024-01-16T02:28:42;-2.00;99.90
47540;DHT22;33280;52.152;21.052;2024-01-16T02:31:29;-2.10;99.90
47540;DHT22;33280;52.152;21.052;2024-01-16T02:34:16;-2.10;99.90
47540;DHT22;33280;52.152;21.052;2024-01-16T02:37:04;-2.20;99.90
47540;DHT22;33280;52.152;21.052;2024-01-16T02:39:51;-2.10;99.90
47540;DHT22;33280;52.152;21.052;2024-01-16T02:42:39;-2.10;99.90
47540;DHT22;33280;52.152;21.052;2024-01-16T02:45:26;-2.20;99.90
47540;DHT22;33280;52.152;21.052;2024-01-16T02:48:14;-2.30;99.90
47540;DHT22;33280;52.152;21.052;2024-01-16T02:51:02;-2.40;99.90
47540;DHT22;33280;52.152;21.052;2024-01-16T02:53:50;-2.40;99.90
47540;DHT22;33280;52.152;21.052;2024-01-16T02:56:38;-2.50;99.90
47540;DHT22;33280;52.152;21.052;2024-01-16T02:59:25;-2.50;99.90
47540;DHT22;33280;52.152;21.052;2024-01-16T03:02:15;-2.50;99.90
47540;DHT22;33280;52.152;21.052;2024-01-16T03:05:03;-2.50;99.90
47540;DHT22;33280;52.152;21.052;2024-01-16T03:07:52;-2.50;99.90
47540;DHT22;33280;52.152;21.052;2024-01-16T03:10:40;-2.60;99.90
47540;DHT22;33280;52.152;21.052;2024-01-16T03:13:27;-2.50;99.90
47540;DHT22;33280;52.152;21.052;2024-01-16T03:16:14;-2.60;99.90
47540;DHT22;33280;52.152;21.052;2024-01-16T03:19:03;-2.70;99.90
47540;DHT22;33280;52.152;21.052;2024-01-16T03:21:50;-2.70;99.90
47540;DHT22;33280;52.152;21.052;2024-01-16T03:24:37;-2.70;99.90
47540;DHT22;33280;52.152;21.052;2024-01-16T03:27:25;-2.80;99.90
47540;DHT22;33280;52.152;21.052;2024-01-16T03:30:12;-2.80;99.90
47540;DHT22;33280;52.152;21.052;2024-01-16T03:33:01;-2.80;99.90
47540;DHT22;33280;52.152;21.052;2024-01-16T03:35:48;-2.80;99.90
47540;DHT22;33280;52.152;21.052;2024-01-16T03:38:36;-2.90;99.90
47540;DHT22;33280;52.152;21.052;2024-01-16T03:41:24;-2.90;99.90
47540;DHT22;33280;52.152;21.052;2024-01-16T03:44:11;-3.00;99.90
47540;DHT22;33280;52.152;21.052;2024-01-16T03:46:59;-3.00;99.90
47540;DHT22;33280;52.152;21.052;2024-01-16T03:49:46;-3.00;99.90
47540;DHT22;33280;52.152;21.052;2024-01-16T03:52:33;-3.00;99.90
47540;DHT22;33280;52.152;21.052;2024-01-16T03:55:21;-3.00;99.90
47540;DHT22;33280;52.152;21.052;2024-01-16T03:58:08;-3.10;99.90
47540;DHT22;33280;52.152;21.052;2024-01-16T04:00:59;-3.20;99.90
47540;DHT22;33280;52.152;21.052;2024-01-16T04:03:47;-3.20;99.90
47540;DHT22;33280;52.152;21.052;2024-01-16T04:06:34;-3.20;99.90
47540;DHT22;33280;52.152;21.052;2024-01-16T04:09:21;-3.20;99.90
47540;DHT22;33280;52.152;21.052;2024-01-16T04:12:09;-3.20;99.90
47540;DHT22;33280;52.152;21.052;2024-01-16T04:14:56;-3.30;99.90
47540;DHT22;33280;52.152;21.052;2024-01-16T04:17:43;-3.20;99.90
47540;DHT22;33280;52.152;21.052;2024-01-16T04:20:31;-3.20;99.90
47540;DHT22;33280;52.152;21.052;2024-01-16T04:23:19;-3.30;99.90
47540;DHT22;33280;52.152;21.052;2024-01-16T04:26:06;-3.30;99.90
47540;DHT22;33280;52.152;21.052;2024-01-16T04:28:55;-3.40;99.90
47540;DHT22;33280;52.152;21.052;2024-01-16T04:31:42;-3.50;99.90
47540;DHT22;33280;52.152;21.052;2024-01-16T04:34:30;-3.50;99.90
47540;DHT22;33280;52.152;21.052;2024-01-16T04:37:17;-3.40;99.90
47540;DHT22;33280;52.152;21.052;2024-01-16T04:40:05;-3.40;99.90
47540;DHT22;33280;52.152;21.052;2024-01-16T04:42:53;-3.40;99.90
47540;DHT22;33280;52.152;21.052;2024-01-16T04:45:40;-3.60;99.90
47540;DHT22;33280;52.152;21.052;2024-01-16T04:48:27;-3.70;99.90
47540;DHT22;33280;52.152;21.052;2024-01-16T04:51:15;-3.70;99.90
47540;DHT22;33280;52.152;21.052;2024-01-16T04:54:02;-3.60;99.90
47540;DHT22;33280;52.152;21.052;2024-01-16T04:56:50;-3.70;99.90
47540;DHT22;33280;52.152;21.052;2024-01-16T04:59:37;-3.70;99.90
47540;DHT22;33280;52.152;21.052;2024-01-16T05:02:25;-3.60;99.90
47540;DHT22;33280;52.152;21.052;2024-01-16T05:05:12;-3.70;99.90
47540;DHT22;33280;52.152;21.052;2024-01-16T05:08:03;-3.80;99.90
47540;DHT22;33280;52.152;21.052;2024-01-16T05:10:51;-3.70;99.90
47540;DHT22;33280;52.152;21.052;2024-01-16T05:13:38;-3.60;99.90
47540;DHT22;33280;52.152;21.052;2024-01-16T05:16:27;-3.70;99.90
47540;DHT22;33280;52.152;21.052;2024-01-16T05:19:14;-3.70;99.90
47540;DHT22;33280;52.152;21.052;2024-01-16T05:22:02;-3.80;99.90
47540;DHT22;33280;52.152;21.052;2024-01-16T05:24:50;-3.80;99.90
47540;DHT22;33280;52.152;21.052;2024-01-16T05:27:37;-3.80;99.90
47540;DHT22;33280;52.152;21.052;2024-01-16T05:30:25;-3.70;99.90
47540;DHT22;33280;52.152;21.052;2024-01-16T05:33:13;-3.70;99.90
47540;DHT22;33280;52.152;21.052;2024-01-16T05:36:00;-3.80;99.90
47540;DHT22;33280;52.152;21.052;2024-01-16T05:38:49;-3.80;99.90
47540;DHT22;33280;52.152;21.052;2024-01-16T05:41:37;-4.00;99.90
47540;DHT22;33280;52.152;21.052;2024-01-16T05:44:25;-4.00;99.90
47540;DHT22;33280;52.152;21.052;2024-01-16T05:47:14;-4.00;99.90
47540;DHT22;33280;52.152;21.052;2024-01-16T05:50:01;-4.10;99.90
47540;DHT22;33280;52.152;21.052;2024-01-16T05:52:49;-4.10;99.90
47540;DHT22;33280;52.152;21.052;2024-01-16T05:55:37;-4.10;99.90
47540;DHT22;33280;52.152;21.052;2024-01-16T05:58:24;-4.30;99.90
47540;DHT22;33280;52.152;21.052;2024-01-16T06:01:12;-4.30;99.90
47540;DHT22;33280;52.152;21.052;2024-01-16T06:04:00;-4.30;99.90
47540;DHT22;33280;52.152;21.052;2024-01-16T06:06:48;-4.40;99.90
47540;DHT22;33280;52.152;21.052;2024-01-16T06:09:40;-4.40;99.90
47540;DHT22;33280;52.152;21.052;2024-01-16T06:12:27;-4.40;99.90
47540;DHT22;33280;52.152;21.052;2024-01-16T06:15:15;-4.30;99.90
47540;DHT22;33280;52.152;21.052;2024-01-16T06:18:02;-4.40;99.90
47540;DHT22;33280;52.152;21.052;2024-01-16T06:20:50;-4.60;99.90
47540;DHT22;33280;52.152;21.052;2024-01-16T06:23:37;-4.50;99.90
47540;DHT22;33280;52.152;21.052;2024-01-16T06:26:25;-4.50;99.90
47540;DHT22;33280;52.152;21.052;2024-01-16T06:29:13;-4.50;99.90
47540;DHT22;33280;52.152;21.052;2024-01-16T06:32:14;-4.40;99.90
47540;DHT22;33280;52.152;21.052;2024-01-16T06:35:01;-4.40;99.90
47540;DHT22;33280;52.152;21.052;2024-01-16T06:37:49;-4.50;99.90
47540;DHT22;33280;52.152;21.052;2024-01-16T06:40:36;-4.40;99.90
47540;DHT22;33280;52.152;21.052;2024-01-16T06:43:24;-4.40;99.90
47540;DHT22;33280;52.152;21.052;2024-01-16T06:46:11;-4.40;99.90
47540;DHT22;33280;52.152;21.052;2024-01-16T06:48:59;-4.40;99.90
47540;DHT22;33280;52.152;21.052;2024-01-16T06:51:46;-4.40;99.90
47540;DHT22;33280;52.152;21.052;2024-01-16T06:54:34;-4.40;99.90
47540;DHT22;33280;52.152;21.052;2024-01-16T06:57:21;-4.50;99.90
47540;DHT22;33280;52.152;21.052;2024-01-16T07:00:09;-4.40;99.90
47540;DHT22;33280;52.152;21.052;2024-01-16T07:02:57;-4.40;99.90
47540;DHT22;33280;52.152;21.052;2024-01-16T07:05:45;-4.40;99.90
47540;DHT22;33280;52.152;21.052;2024-01-16T07:08:33;-4.30;99.90
47540;DHT22;33280;52.152;21.052;2024-01-16T07:11:21;-4.40;99.90
47540;DHT22;33280;52.152;21.052;2024-01-16T07:14:12;-4.40;99.90
47540;DHT22;33280;52.152;21.052;2024-01-16T07:17:00;-4.30;99.90
47540;DHT22;33280;52.152;21.052;2024-01-16T07:19:47;-4.20;99.90
47540;DHT22;33280;52.152;21.052;2024-01-16T07:22:37;-4.30;99.90
47540;DHT22;33280;52.152;21.052;2024-01-16T07:25:24;-4.20;99.90
47540;DHT22;33280;52.152;21.052;2024-01-16T07:28:12;-4.20;99.90
47540;DHT22;33280;52.152;21.052;2024-01-16T07:30:59;-4.20;99.90
47540;DHT22;33280;52.152;21.052;2024-01-16T07:33:47;-4.20;99.90
47540;DHT22;33280;52.152;21.052;2024-01-16T07:36:35;-4.10;99.90
47540;DHT22;33280;52.152;21.052;2024-01-16T07:39:22;-4.30;99.90
47540;DHT22;33280;52.152;21.052;2024-01-16T07:42:10;-4.30;99.90
47540;DHT22;33280;52.152;21.052;2024-01-16T07:44:58;-4.30;99.90
47540;DHT22;33280;52.152;21.052;2024-01-16T07:47:45;-4.40;99.90
47540;DHT22;33280;52.152;21.052;2024-01-16T07:50:33;-4.50;99.90
47540;DHT22;33280;52.152;21.052;2024-01-16T07:53:21;-4.10;99.90
47540;DHT22;33280;52.152;21.052;2024-01-16T07:56:09;-4.00;99.90
47540;DHT22;33280;52.152;21.052;2024-01-16T07:58:56;-3.70;99.90
47540;DHT22;33280;52.152;21.052;2024-01-16T08:01:44;-3.30;99.90
47540;DHT22;33280;52.152;21.052;2024-01-16T08:04:31;-3.00;99.90
47540;DHT22;33280;52.152;21.052;2024-01-16T08:07:19;-2.80;99.90
47540;DHT22;33280;52.152;21.052;2024-01-16T08:10:08;-2.90;99.90
47540;DHT22;33280;52.152;21.052;2024-01-16T08:12:56;-2.70;99.90
47540;DHT22;33280;52.152;21.052;2024-01-16T08:15:45;-2.50;99.90
47540;DHT22;33280;52.152;21.052;2024-01-16T08:18:32;-2.50;99.90
47540;DHT22;33280;52.152;21.052;2024-01-16T08:21:20;-2.80;99.90
47540;DHT22;33280;52.152;21.052;2024-01-16T08:24:08;-2.70;99.90
47540;DHT22;33280;52.152;21.052;2024-01-16T08:26:55;-2.50;99.90
47540;DHT22;33280;52.152;21.052;2024-01-16T08:29:45;-2.10;99.90
47540;DHT22;33280;52.152;21.052;2024-01-16T08:32:32;-2.00;99.90
47540;DHT22;33280;52.152;21.052;2024-01-16T08:35:20;-2.20;99.90
47540;DHT22;33280;52.152;21.052;2024-01-16T08:38:07;-2.50;99.90
47540;DHT22;33280;52.152;21.052;2024-01-16T08:40:55;-2.40;99.90
47540;DHT22;33280;52.152;21.052;2024-01-16T08:43:43;-2.10;99.90
47540;DHT22;33280;52.152;21.052;2024-01-16T08:46:30;-2.00;99.90
47540;DHT22;33280;52.152;21.052;2024-01-16T08:49:18;-1.70;99.90
47540;DHT22;33280;52.152;21.052;2024-01-16T08:52:07;-1.70;99.90
47540;DHT22;33280;52.152;21.052;2024-01-16T08:54:55;-2.40;99.90
47540;DHT22;33280;52.152;21.052;2024-01-16T08:57:42;-2.50;99.90
47540;DHT22;33280;52.152;21.052;2024-01-16T09:00:29;-2.50;99.90
47540;DHT22;33280;52.152;21.052;2024-01-16T09:03:17;-3.00;99.90
47540;DHT22;33280;52.152;21.052;2024-01-16T09:06:05;-3.20;99.90
47540;DHT22;33280;52.152;21.052;2024-01-16T09:08:53;-3.40;99.90
47540;DHT22;33280;52.152;21.052;2024-01-16T09:11:41;-3.50;99.90
47540;DHT22;33280;52.152;21.052;2024-01-16T09:14:28;-3.60;99.90
47540;DHT22;33280;52.152;21.052;2024-01-16T09:17:16;-3.40;99.90
47540;DHT22;33280;52.152;21.052;2024-01-16T09:20:03;-3.60;99.90
47540;DHT22;33280;52.152;21.052;2024-01-16T09:22:51;-3.60;99.90
47540;DHT22;33280;52.152;21.052;2024-01-16T09:25:39;-3.60;99.90
47540;DHT22;33280;52.152;21.052;2024-01-16T09:28:26;-3.60;99.90
47540;DHT22;33280;52.152;21.052;2024-01-16T09:31:15;-3.50;99.90
47540;DHT22;33280;52.152;21.052;2024-01-16T09:34:04;-3.60;99.90
47540;DHT22;33280;52.152;21.052;2024-01-16T09:36:56;-3.60;99.90
47540;DHT22;33280;52.152;21.052;2024-01-16T09:39:46;-3.60;99.90
47540;DHT22;33280;52.152;21.052;2024-01-16T09:42:33;-3.60;99.90
47540;DHT22;33280;52.152;21.052;2024-01-16T09:45:21;-3.50;99.90
47540;DHT22;33280;52.152;21.052;2024-01-16T09:48:09;-3.60;99.90
47540;DHT22;33280;52.152;21.052;2024-01-16T09:50:57;-3.60;99.90
47540;DHT22;33280;52.152;21.052;2024-01-16T09:53:45;-3.60;99.90
47540;DHT22;33280;52.152;21.052;2024-01-16T09:56:33;-3.60;99.90
47540;DHT22;33280;52.152;21.052;2024-01-16T09:59:22;-3.70;99.90
47540;DHT22;33280;52.152;21.052;2024-01-16T10:02:10;-3.60;99.90
47540;DHT22;33280;52.152;21.052;2024-01-16T10:04:59;-3.60;99.90
47540;DHT22;33280;52.152;21.052;2024-01-16T10:07:47;-3.60;99.90
47540;DHT22;33280;52.152;21.052;2024-01-16T10:10:36;-3.50;99.90
47540;DHT22;33280;52.152;21.052;2024-01-16T10:13:35;-3.40;99.90
47540;DHT22;33280;52.152;21.052;2024-01-16T10:16:23;-3.50;99.90
47540;DHT22;33280;52.152;21.052;2024-01-16T10:19:13;-3.50;99.90
47540;DHT22;33280;52.152;21.052;2024-01-16T10:22:06;-3.40;99.90
47540;DHT22;33280;52.152;21.052;2024-01-16T10:25:07;-3.40;99.90
47540;DHT22;33280;52.152;21.052;2024-01-16T10:28:07;-3.40;99.90
47540;DHT22;33280;52.152;21.052;2024-01-16T10:31:10;-3.40;99.90
47540;DHT22;33280;52.152;21.052;2024-01-16T10:33:59;-3.30;99.90
47540;DHT22;33280;52.152;21.052;2024-01-16T10:36:48;-3.20;99.90
47540;DHT22;33280;52.152;21.052;2024-01-16T10:39:35;-3.30;99.90
47540;DHT22;33280;52.152;21.052;2024-01-16T10:42:30;-3.30;99.90
47540;DHT22;33280;52.152;21.052;2024-01-16T10:45:18;-3.20;99.90
47540;DHT22;33280;52.152;21.052;2024-01-16T10:48:09;-3.20;99.90
47540;DHT22;33280;52.152;21.052;2024-01-16T10:50:57;-3.20;99.90
47540;DHT22;33280;52.152;21.052;2024-01-16T10:53:45;-3.20;99.90
47540;DHT22;33280;52.152;21.052;2024-01-16T10:56:35;-3.20;99.90
47540;DHT22;33280;52.152;21.052;2024-01-16T10:59:34;-3.10;99.90
47540;DHT22;33280;52.152;21.052;2024-01-16T11:02:24;-3.00;99.90
47540;DHT22;33280;52.152;21.052;2024-01-16T11:05:16;-3.00;99.90
47540;DHT22;33280;52.152;21.052;2024-01-16T11:08:05;-2.90;99.90
47540;DHT22;33280;52.152;21.052;2024-01-16T11:10:53;-2.90;99.90
47540;DHT22;33280;52.152;21.052;2024-01-16T11:13:41;-2.90;99.90
47540;DHT22;33280;52.152;21.052;2024-01-16T11:16:32;-3.00;99.90
47540;DHT22;33280;52.152;21.052;2024-01-16T11:19:19;-3.00;99.90
47540;DHT22;33280;52.152;21.052;2024-01-16T11:22:27;-3.00;99.90
47540;DHT22;33280;52.152;21.052;2024-01-16T11:25:16;-3.00;99.90
47540;DHT22;33280;52.152;21.052;2024-01-16T11:28:12;-3.00;99.90
47540;DHT22;33280;52.152;21.052;2024-01-16T11:37:29;-3.00;99.90
47540;DHT22;33280;52.152;21.052;2024-01-16T11:46:21;-2.70;99.90
47540;DHT22;33280;52.152;21.052;2024-01-16T11:49:09;-2.40;99.90
47540;DHT22;33280;52.152;21.052;2024-01-16T11:51:59;-2.20;99.90
47540;DHT22;33280;52.152;21.052;2024-01-16T11:54:47;-2.20;99.90
47540;DHT22;33280;52.152;21.052;2024-01-16T11:57:50;-2.00;99.90
47540;DHT22;33280;52.152;21.052;2024-01-16T12:00:45;-1.50;99.90
47540;DHT22;33280;52.152;21.052;2024-01-16T12:03:35;-1.30;99.90
47540;DHT22;33280;52.152;21.052;2024-01-16T12:06:22;-1.00;99.90
47540;DHT22;33280;52.152;21.052;2024-01-16T12:09:15;-1.00;99.90
47540;DHT22;33280;52.152;21.052;2024-01-16T12:12:03;-1.00;99.90
47540;DHT22;33280;52.152;21.052;2024-01-16T12:14:51;-1.00;99.90
47540;DHT22;33280;52.152;21.052;2024-01-16T12:17:55;-1.20;99.90
47540;DHT22;33280;52.152;21.052;2024-01-16T12:20:43;-1.60;99.90
47540;DHT22;33280;52.152;21.052;2024-01-16T12:23:31;-1.50;99.90
47540;DHT22;33280;52.152;21.052;2024-01-16T12:26:24;-1.70;99.90
47540;DHT22;33280;52.152;21.052;2024-01-16T12:29:12;-1.70;99.90
47540;DHT22;33280;52.152;21.052;2024-01-16T12:32:12;-1.80;99.90
47540;DHT22;33280;52.152;21.052;2024-01-16T12:35:03;-1.90;99.90
47540;DHT22;33280;52.152;21.052;2024-01-16T12:38:01;-2.30;99.90
47540;DHT22;33280;52.152;21.052;2024-01-16T12:40:49;-2.30;99.90
47540;DHT22;33280;52.152;21.052;2024-01-16T12:43:38;-2.50;99.90
47540;DHT22;33280;52.152;21.052;2024-01-16T12:46:26;-2.70;99.90
47540;DHT22;33280;52.152;21.052;2024-01-16T12:49:13;-2.60;99.90
47540;DHT22;33280;52.152;21.052;2024-01-16T12:52:20;-2.60;99.90
47540;DHT22;33280;52.152;21.052;2024-01-16T12:55:09;-2.60;99.90
47540;DHT22;33280;52.152;21.052;2024-01-16T12:58:13;-2.70;99.90
47540;DHT22;33280;52.152;21.052;2024-01-16T13:01:27;-2.70;99.90
47540;DHT22;33280;52.152;21.052;2024-01-16T13:04:26;-2.60;99.90
47540;DHT22;33280;52.152;21.052;2024-01-16T13:07:16;-2.40;99.90
47540;DHT22;33280;52.152;21.052;2024-01-16T13:13:18;-1.80;99.90
47540;DHT22;33280;52.152;21.052;2024-01-16T13:16:05;-1.10;99.90
47540;DHT22;33280;52.152;21.052;2024-01-16T13:19:02;-0.80;99.90
47540;DHT22;33280;52.152;21.052;2024-01-16T13:21:51;-0.70;99.90
47540;DHT22;33280;52.152;21.052;2024-01-16T13:24:38;-0.90;99.90
47540;DHT22;33280;52.152;21.052;2024-01-16T13:27:27;-0.70;99.90
47540;DHT22;33280;52.152;21.052;2024-01-16T13:30:16;-0.40;99.90
47540;DHT22;33280;52.152;21.052;2024-01-16T13:33:08;-0.30;99.90
47540;DHT22;33280;52.152;21.052;2024-01-16T13:35:55;-0.30;99.90
47540;DHT22;33280;52.152;21.052;2024-01-16T13:38:43;-0.10;99.90
47540;DHT22;33280;52.152;21.052;2024-01-16T13:41:31;-0.20;99.90
47540;DHT22;33280;52.152;21.052;2024-01-16T13:44:19;-0.40;99.90
47540;DHT22;33280;52.152;21.052;2024-01-16T13:47:06;-0.40;99.90
47540;DHT22;33280;52.152;21.052;2024-01-16T13:50:00;-0.20;99.90
47540;DHT22;33280;52.152;21.052;2024-01-16T13:52:50;-0.40;99.90
47540;DHT22;33280;52.152;21.052;2024-01-16T13:55:41;-0.40;99.90
47540;DHT22;33280;52.152;21.052;2024-01-16T13:58:29;-0.40;99.90
47540;DHT22;33280;52.152;21.052;2024-01-16T14:01:16;-0.40;99.90
47540;DHT22;33280;52.152;21.052;2024-01-16T14:04:04;-0.50;99.90
47540;DHT22;33280;52.152;21.052;2024-01-16T14:06:52;-0.50;99.90
47540;DHT22;33280;52.152;21.052;2024-01-16T14:09:59;-0.30;99.90
47540;DHT22;33280;52.152;21.052;2024-01-16T14:12:47;-0.70;99.90
47540;DHT22;33280;52.152;21.052;2024-01-16T14:15:35;-0.90;99.90
47540;DHT22;33280;52.152;21.052;2024-01-16T14:18:23;-0.80;99.90
47540;DHT22;33280;52.152;21.052;2024-01-16T14:21:11;-0.90;99.90
47540;DHT22;33280;52.152;21.052;2024-01-16T14:23:58;-1.00;99.90
47540;DHT22;33280;52.152;21.052;2024-01-16T14:26:46;-1.00;99.90
47540;DHT22;33280;52.152;21.052;2024-01-16T14:29:33;-1.40;99.90
47540;DHT22;33280;52.152;21.052;2024-01-16T14:32:24;-1.70;99.90
47540;DHT22;33280;52.152;21.052;2024-01-16T14:35:14;-1.90;99.90
47540;DHT22;33280;52.152;21.052;2024-01-16T14:38:04;-2.40;99.90
47540;DHT22;33280;52.152;21.052;2024-01-16T14:40:53;-2.70;99.90
47540;DHT22;33280;52.152;21.052;2024-01-16T14:43:43;-2.80;99.90
47540;DHT22;33280;52.152;21.052;2024-01-16T14:46:30;-2.90;99.90
47540;DHT22;33280;52.152;21.052;2024-01-16T14:49:18;-3.10;99.90
47540;DHT22;33280;52.152;21.052;2024-01-16T14:52:05;-3.00;99.90
47540;DHT22;33280;52.152;21.052;2024-01-16T14:54:54;-3.10;99.90
47540;DHT22;33280;52.152;21.052;2024-01-16T14:57:42;-3.20;99.90
47540;DHT22;33280;52.152;21.052;2024-01-16T15:00:29;-3.30;99.90
47540;DHT22;33280;52.152;21.052;2024-01-16T15:03:17;-3.40;99.90
47540;DHT22;33280;52.152;21.052;2024-01-16T15:06:05;-3.50;99.90
47540;DHT22;33280;52.152;21.052;2024-01-16T15:08:53;-3.60;99.90
47540;DHT22;33280;52.152;21.052;2024-01-16T15:11:42;-3.60;99.90
47540;DHT22;33280;52.152;21.052;2024-01-16T15:14:35;-3.70;99.90
47540;DHT22;33280;52.152;21.052;2024-01-16T15:17:23;-3.70;99.90
47540;DHT22;33280;52.152;21.052;2024-01-16T15:20:11;-3.80;99.90
47540;DHT22;33280;52.152;21.052;2024-01-16T15:22:58;-3.80;99.90
47540;DHT22;33280;52.152;21.052;2024-01-16T15:25:46;-3.90;99.90
47540;DHT22;33280;52.152;21.052;2024-01-16T15:28:33;-4.00;99.90
47540;DHT22;33280;52.152;21.052;2024-01-16T15:31:21;-4.00;99.90
47540;DHT22;33280;52.152;21.052;2024-01-16T15:34:08;-4.00;99.90
47540;DHT22;33280;52.152;21.052;2024-01-16T15:37:00;-4.00;99.90
47540;DHT22;33280;52.152;21.052;2024-01-16T15:39:47;-3.90;99.90
47540;DHT22;33280;52.152;21.052;2024-01-16T15:42:34;-4.00;99.90
47540;DHT22;33280;52.152;21.052;2024-01-16T15:45:27;-4.00;99.90
47540;DHT22;33280;52.152;21.052;2024-01-16T15:48:14;-4.10;99.90
47540;DHT22;33280;52.152;21.052;2024-01-16T15:51:02;-4.10;99.90
47540;DHT22;33280;52.152;21.052;2024-01-16T15:53:56;-4.20;99.90
47540;DHT22;33280;52.152;21.052;2024-01-16T15:56:44;-4.20;99.90
47540;DHT22;33280;52.152;21.052;2024-01-16T15:59:31;-4.30;99.90
47540;DHT22;33280;52.152;21.052;2024-01-16T16:02:19;-4.30;99.90
47540;DHT22;33280;52.152;21.052;2024-01-16T16:05:06;-4.40;99.90
47540;DHT22;33280;52.152;21.052;2024-01-16T16:07:54;-4.40;99.90
47540;DHT22;33280;52.152;21.052;2024-01-16T16:10:41;-4.40;99.90
47540;DHT22;33280;52.152;21.052;2024-01-16T16:13:29;-4.50;99.90
47540;DHT22;33280;52.152;21.052;2024-01-16T16:16:18;-4.60;99.90
47540;DHT22;33280;52.152;21.052;2024-01-16T16:19:06;-4.50;99.90
47540;DHT22;33280;52.152;21.052;2024-01-16T16:21:53;-4.60;99.90
47540;DHT22;33280;52.152;21.052;2024-01-16T16:24:41;-4.60;99.90
47540;DHT22;33280;52.152;21.052;2024-01-16T16:27:29;-4.60;99.90
47540;DHT22;33280;52.152;21.052;2024-01-16T16:30:17;-4.70;99.90
47540;DHT22;33280;52.152;21.052;2024-01-16T16:33:04;-4.70;99.90
47540;DHT22;33280;52.152;21.052;2024-01-16T16:35:54;-4.70;99.90
47540;DHT22;33280;52.152;21.052;2024-01-16T16:38:42;-4.70;99.90
47540;DHT22;33280;52.152;21.052;2024-01-16T16:41:30;-4.70;99.90
47540;DHT22;33280;52.152;21.052;2024-01-16T16:44:17;-4.70;99.90
47540;DHT22;33280;52.152;21.052;2024-01-16T16:47:04;-4.70;99.90
47540;DHT22;33280;52.152;21.052;2024-01-16T16:49:52;-4.80;99.90
47540;DHT22;33280;52.152;21.052;2024-01-16T16:52:39;-4.90;99.90
47540;DHT22;33280;52.152;21.052;2024-01-16T16:55:27;-4.90;99.90
47540;DHT22;33280;52.152;21.052;2024-01-16T16:58:14;-5.00;99.90
47540;DHT22;33280;52.152;21.052;2024-01-16T17:01:02;-5.00;99.90
47540;DHT22;33280;52.152;21.052;2024-01-16T17:03:49;-5.00;99.90
47540;DHT22;33280;52.152;21.052;2024-01-16T17:06:39;-5.10;99.90
47540;DHT22;33280;52.152;21.052;2024-01-16T17:09:26;-5.10;99.90
47540;DHT22;33280;52.152;21.052;2024-01-16T17:12:15;-5.10;99.90
47540;DHT22;33280;52.152;21.052;2024-01-16T17:15:02;-5.10;99.90
47540;DHT22;33280;52.152;21.052;2024-01-16T17:17:51;-5.00;99.90
47540;DHT22;33280;52.152;21.052;2024-01-16T17:20:39;-5.10;99.90
47540;DHT22;33280;52.152;21.052;2024-01-16T17:23:26;-5.10;99.90
47540;DHT22;33280;52.152;21.052;2024-01-16T17:26:14;-5.20;99.90
47540;DHT22;33280;52.152;21.052;2024-01-16T17:29:01;-5.20;99.90
47540;DHT22;33280;52.152;21.052;2024-01-16T17:31:49;-5.20;99.90
47540;DHT22;33280;52.152;21.052;2024-01-16T17:34:36;-5.30;99.90
47540;DHT22;33280;52.152;21.052;2024-01-16T17:37:24;-5.30;99.90
47540;DHT22;33280;52.152;21.052;2024-01-16T17:40:11;-5.30;99.90
47540;DHT22;33280;52.152;21.052;2024-01-16T17:43:02;-5.40;99.90